sensor_id;sensor_type;location;lat;lon;timestamp;temperature;humidity
78733;DHT22;68056;52.530;5.454;2023-07-22T00:00:49;16.80;63.40
78733;DHT22;68056;52.530;5.454;2023-07-22T00:03:15;16.70;63.50
78733;DHT22;68056;52.530;5.454;2023-07-22T00:05:41;16.70;63.50
78733;DHT22;68056;52.530;5.454;2023-07-22T00:08:07;16.70;63.50
78733;DHT22;68056;52.530;5.454;2023-07-22T00:10:32;16.80;63.50
78733;DHT22;68056;52.530;5.454;2023-07-22T00:12:58;16.80;63.50
78733;DHT22;68056;52.530;5.454;2023-07-22T00:15:23;16.70;63.50
78733;DHT22;68056;52.530;5.454;2023-07-22T00:17:50;16.70;63.50
78733;DHT22;68056;52.530;5.454;2023-07-22T00:20:16;16.70;63.50
78733;DHT22;68056;52.530;5.454;2023-07-22T00:22:42;16.80;63.60
78733;DHT22;68056;52.530;5.454;2023-07-22T00:25:10;16.80;63.50
78733;DHT22;68056;52.530;5.454;2023-07-22T00:27:37;16.70;63.60
78733;DHT22;68056;52.530;5.454;2023-07-22T00:30:05;16.80;63.70
78733;DHT22;68056;52.530;5.454;2023-07-22T00:32:31;16.80;63.70
78733;DHT22;68056;52.530;5.454;2023-07-22T00:34:56;16.70;63.70
78733;DHT22;68056;52.530;5.454;2023-07-22T00:37:22;16.70;63.60
78733;DHT22;68056;52.530;5.454;2023-07-22T00:39:48;16.70;63.60
78733;DHT22;68056;52.530;5.454;2023-07-22T00:42:13;16.70;63.50
78733;DHT22;68056;52.530;5.454;2023-07-22T00:44:39;16.70;63.60
78733;DHT22;68056;52.530;5.454;2023-07-22T00:47:05;16.70;63.60
78733;DHT22;68056;52.530;5.454;2023-07-22T00:49:31;16.70;63.70
78733;DHT22;68056;52.530;5.454;2023-07-22T00:52:00;16.70;63.70
78733;DHT22;68056;52.530;5.454;2023-07-22T00:54:28;16.70;63.70
78733;DHT22;68056;52.530;5.454;2023-07-22T00:56:54;16.70;63.70
78733;DHT22;68056;52.530;5.454;2023-07-22T00:59:21;16.70;63.70
78733;DHT22;68056;52.530;5.454;2023-07-22T01:01:47;16.70;63.70
78733;DHT22;68056;52.530;5.454;2023-07-22T01:04:14;16.70;63.70
78733;DHT22;68056;52.530;5.454;2023-07-22T01:06:42;16.60;63.90
78733;DHT22;68056;52.530;5.454;2023-07-22T01:09:09;16.60;64.00
78733;DHT22;68056;52.530;5.454;2023-07-22T01:11:36;16.50;64.20
78733;DHT22;68056;52.530;5.454;2023-07-22T01:14:02;16.50;64.30
78733;DHT22;68056;52.530;5.454;2023-07-22T01:16:29;16.40;64.40
78733;DHT22;68056;52.530;5.454;2023-07-22T01:18:54;16.40;64.40
78733;DHT22;68056;52.530;5.454;2023-07-22T01:21:23;16.40;64.60
78733;DHT22;68056;52.530;5.454;2023-07-22T01:23:49;16.40;64.80
78733;DHT22;68056;52.530;5.454;2023-07-22T01:26:15;16.40;64.90
78733;DHT22;68056;52.530;5.454;2023-07-22T01:28:41;16.40;65.00
78733;DHT22;68056;52.530;5.454;2023-07-22T01:31:06;16.30;65.20
78733;DHT22;68056;52.530;5.454;2023-07-22T01:33:32;16.20;65.30
78733;DHT22;68056;52.530;5.454;2023-07-22T01:35:59;16.20;65.50
78733;DHT22;68056;52.530;5.454;2023-07-22T01:38:25;16.10;65.70
78733;DHT22;68056;52.530;5.454;2023-07-22T01:40:51;16.10;65.90
78733;DHT22;68056;52.530;5.454;2023-07-22T01:43:16;16.10;66.10
78733;DHT22;68056;52.530;5.454;2023-07-22T01:45:42;16.00;66.20
78733;DHT22;68056;52.530;5.454;2023-07-22T01:48:08;16.00;66.30
78733;DHT22;68056;52.530;5.454;2023-07-22T01:50:33;16.00;66.40
78733;DHT22;68056;52.530;5.454;2023-07-22T01:52:59;16.00;66.50
78733;DHT22;68056;52.530;5.454;2023-07-22T01:55:25;16.00;66.60
78733;DHT22;68056;52.530;5.454;2023-07-22T01:57:51;16.00;66.60
78733;DHT22;68056;52.530;5.454;2023-07-22T02:00:23;16.00;66.70
78733;DHT22;68056;52.530;5.454;2023-07-22T02:02:49;15.90;66.90
78733;DHT22;68056;52.530;5.454;2023-07-22T02:05:15;15.90;66.90
78733;DHT22;68056;52.530;5.454;2023-07-22T02:07:40;15.90;66.90
78733;DHT22;68056;52.530;5.454;2023-07-22T02:10:06;15.90;67.00
78733;DHT22;68056;52.530;5.454;2023-07-22T02:12:33;15.90;67.00
78733;DHT22;68056;52.530;5.454;2023-07-22T02:14:59;15.90;67.20
78733;DHT22;68056;52.530;5.454;2023-07-22T02:17:24;16.00;67.20
78733;DHT22;68056;52.530;5.454;2023-07-22T02:19:51;16.00;67.20
78733;DHT22;68056;52.530;5.454;2023-07-22T02:22:16;15.90;67.30
78733;DHT22;68056;52.530;5.454;2023-07-22T02:24:43;16.00;67.20
78733;DHT22;68056;52.530;5.454;2023-07-22T02:27:08;15.90;67.40
78733;DHT22;68056;52.530;5.454;2023-07-22T02:29:34;16.00;67.40
78733;DHT22;68056;52.530;5.454;2023-07-22T02:32:00;15.90;67.50
78733;DHT22;68056;52.530;5.454;2023-07-22T02:34:25;15.80;67.50
78733;DHT22;68056;52.530;5.454;2023-07-22T02:36:51;15.80;67.60
78733;DHT22;68056;52.530;5.454;2023-07-22T02:39:17;15.80;67.60
78733;DHT22;68056;52.530;5.454;2023-07-22T02:41:42;15.80;67.70
78733;DHT22;68056;52.530;5.454;2023-07-22T02:44:08;15.80;67.80
78733;DHT22;68056;52.530;5.454;2023-07-22T02:46:34;15.80;67.90
78733;DHT22;68056;52.530;5.454;2023-07-22T02:49:05;15.80;68.00
78733;DHT22;68056;52.530;5.454;2023-07-22T02:51:31;15.80;68.10
78733;DHT22;68056;52.530;5.454;2023-07-22T02:53:56;15.80;68.20
78733;DHT22;68056;52.530;5.454;2023-07-22T02:56:22;15.70;68.20
78733;DHT22;68056;52.530;5.454;2023-07-22T02:58:49;15.60;68.30
78733;DHT22;68056;52.530;5.454;2023-07-22T03:01:15;15.70;68.40
78733;DHT22;68056;52.530;5.454;2023-07-22T03:03:40;15.70;68.40
78733;DHT22;68056;52.530;5.454;2023-07-22T03:06:06;15.70;68.30
78733;DHT22;68056;52.530;5.454;2023-07-22T03:08:33;15.70;68.40
78733;DHT22;68056;52.530;5.454;2023-07-22T03:10:59;15.80;68.40
78733;DHT22;68056;52.530;5.454;2023-07-22T03:13:24;15.80;68.40
78733;DHT22;68056;52.530;5.454;2023-07-22T03:15:55;15.80;68.30
78733;DHT22;68056;52.530;5.454;2023-07-22T03:18:20;15.70;68.40
78733;DHT22;68056;52.530;5.454;2023-07-22T03:20:46;15.70;68.40
78733;DHT22;68056;52.530;5.454;2023-07-22T03:23:11;15.70;68.50
78733;DHT22;68056;52.530;5.454;2023-07-22T03:25:37;15.60;68.70
78733;DHT22;68056;52.530;5.454;2023-07-22T03:28:04;15.60;68.70
78733;DHT22;68056;52.530;5.454;2023-07-22T03:30:30;15.60;68.70
78733;DHT22;68056;52.530;5.454;2023-07-22T03:32:56;15.60;68.70
78733;DHT22;68056;52.530;5.454;2023-07-22T03:35:21;15.60;68.70
78733;DHT22;68056;52.530;5.454;2023-07-22T03:37:47;15.60;68.80
78733;DHT22;68056;52.530;5.454;2023-07-22T03:40:12;15.60;69.00
78733;DHT22;68056;52.530;5.454;2023-07-22T03:42:49;15.60;69.00
78733;DHT22;68056;52.530;5.454;2023-07-22T03:45:15;15.60;69.10
78733;DHT22;68056;52.530;5.454;2023-07-22T03:47:41;15.60;69.10
78733;DHT22;68056;52.530;5.454;2023-07-22T03:50:07;15.50;69.20
78733;DHT22;68056;52.530;5.454;2023-07-22T03:52:33;15.50;69.40
78733;DHT22;68056;52.530;5.454;2023-07-22T03:54:59;15.50;69.50
78733;DHT22;68056;52.530;5.454;2023-07-22T03:57:28;15.50;69.50
78733;DHT22;68056;52.530;5.454;2023-07-22T03:59:54;15.40;69.60
78733;DHT22;68056;52.530;5.454;2023-07-22T04:02:20;15.40;69.70
78733;DHT22;68056;52.530;5.454;2023-07-22T04:04:45;15.40;69.80
78733;DHT22;68056;52.530;5.454;2023-07-22T04:07:11;15.30;69.80
78733;DHT22;68056;52.530;5.454;2023-07-22T04:09:36;15.30;69.90
78733;DHT22;68056;52.530;5.454;2023-07-22T04:12:02;15.20;69.90
78733;DHT22;68056;52.530;5.454;2023-07-22T04:14:28;15.20;70.00
78733;DHT22;68056;52.530;5.454;2023-07-22T04:16:53;15.10;70.10
78733;DHT22;68056;52.530;5.454;2023-07-22T04:19:19;15.10;70.10
78733;DHT22;68056;52.530;5.454;2023-07-22T04:21:45;15.10;70.10
78733;DHT22;68056;52.530;5.454;2023-07-22T04:24:10;15.00;70.30
78733;DHT22;68056;52.530;5.454;2023-07-22T04:26:36;15.00;70.30
78733;DHT22;68056;52.530;5.454;2023-07-22T04:29:01;15.00;70.30
78733;DHT22;68056;52.530;5.454;2023-07-22T04:31:27;15.00;70.40
78733;DHT22;68056;52.530;5.454;2023-07-22T04:33:53;15.00;70.40
78733;DHT22;68056;52.530;5.454;2023-07-22T04:36:18;15.00;70.40
78733;DHT22;68056;52.530;5.454;2023-07-22T04:38:44;15.00;70.40
78733;DHT22;68056;52.530;5.454;2023-07-22T04:41:10;15.00;70.50
78733;DHT22;68056;52.530;5.454;2023-07-22T04:43:35;15.00;70.50
78733;DHT22;68056;52.530;5.454;2023-07-22T04:46:01;15.00;70.50
78733;DHT22;68056;52.530;5.454;2023-07-22T04:48:26;15.00;70.50
78733;DHT22;68056;52.530;5.454;2023-07-22T04:50:52;15.00;70.50
78733;DHT22;68056;52.530;5.454;2023-07-22T04:53:18;15.00;70.50
78733;DHT22;68056;52.530;5.454;2023-07-22T04:55:44;15.00;70.50
78733;DHT22;68056;52.530;5.454;2023-07-22T04:58:10;15.00;70.50
78733;DHT22;68056;52.530;5.454;2023-07-22T05:00:36;15.10;70.50
78733;DHT22;68056;52.530;5.454;2023-07-22T05:03:03;15.20;70.50
78733;DHT22;68056;52.530;5.454;2023-07-22T05:05:29;15.20;70.50
78733;DHT22;68056;52.530;5.454;2023-07-22T05:07:55;15.20;70.40
78733;DHT22;68056;52.530;5.454;2023-07-22T05:10:20;15.20;70.40
78733;DHT22;68056;52.530;5.454;2023-07-22T05:12:46;15.30;70.40
78733;DHT22;68056;52.530;5.454;2023-07-22T05:15:12;15.30;70.50
78733;DHT22;68056;52.530;5.454;2023-07-22T05:17:38;15.30;70.50
78733;DHT22;68056;52.530;5.454;2023-07-22T05:20:05;15.30;70.60
78733;DHT22;68056;52.530;5.454;2023-07-22T05:22:38;15.30;70.60
78733;DHT22;68056;52.530;5.454;2023-07-22T05:25:05;15.30;70.60
78733;DHT22;68056;52.530;5.454;2023-07-22T05:27:31;15.30;70.60
78733;DHT22;68056;52.530;5.454;2023-07-22T05:29:57;15.30;70.60
78733;DHT22;68056;52.530;5.454;2023-07-22T05:32:23;15.40;70.70
78733;DHT22;68056;52.530;5.454;2023-07-22T05:34:48;15.40;70.70
78733;DHT22;68056;52.530;5.454;2023-07-22T05:37:14;15.40;70.70
78733;DHT22;68056;52.530;5.454;2023-07-22T05:39:39;15.40;70.80
78733;DHT22;68056;52.530;5.454;2023-07-22T05:42:05;15.40;70.70
78733;DHT22;68056;52.530;5.454;2023-07-22T05:44:31;15.50;70.70
78733;DHT22;68056;52.530;5.454;2023-07-22T05:46:56;15.50;70.70
78733;DHT22;68056;52.530;5.454;2023-07-22T05:49:22;15.50;70.80
78733;DHT22;68056;52.530;5.454;2023-07-22T05:51:48;15.50;70.80
78733;DHT22;68056;52.530;5.454;2023-07-22T05:54:13;15.60;70.70
78733;DHT22;68056;52.530;5.454;2023-07-22T05:56:39;15.60;70.70
78733;DHT22;68056;52.530;5.454;2023-07-22T05:59:06;15.60;70.60
78733;DHT22;68056;52.530;5.454;2023-07-22T06:01:32;15.70;70.70
78733;DHT22;68056;52.530;5.454;2023-07-22T06:03:58;15.80;70.70
78733;DHT22;68056;52.530;5.454;2023-07-22T06:06:23;15.80;70.70
78733;DHT22;68056;52.530;5.454;2023-07-22T06:08:49;15.80;70.70
78733;DHT22;68056;52.530;5.454;2023-07-22T06:11:15;15.80;70.80
78733;DHT22;68056;52.530;5.454;2023-07-22T06:13:40;15.80;70.80
78733;DHT22;68056;52.530;5.454;2023-07-22T06:16:06;15.90;70.70
78733;DHT22;68056;52.530;5.454;2023-07-22T06:18:31;16.00;70.70
78733;DHT22;68056;52.530;5.454;2023-07-22T06:20:57;16.00;70.50
78733;DHT22;68056;52.530;5.454;2023-07-22T06:23:23;16.10;70.50
78733;DHT22;68056;52.530;5.454;2023-07-22T06:25:48;16.20;70.40
78733;DHT22;68056;52.530;5.454;2023-07-22T06:28:14;16.30;70.30
78733;DHT22;68056;52.530;5.454;2023-07-22T06:30:39;16.40;70.30
78733;DHT22;68056;52.530;5.454;2023-07-22T06:33:05;16.40;70.20
78733;DHT22;68056;52.530;5.454;2023-07-22T06:35:31;16.40;70.20
78733;DHT22;68056;52.530;5.454;2023-07-22T06:37:56;16.40;70.20
78733;DHT22;68056;52.530;5.454;2023-07-22T06:40:24;16.40;70.30
78733;DHT22;68056;52.530;5.454;2023-07-22T06:42:50;16.40;70.30
78733;DHT22;68056;52.530;5.454;2023-07-22T06:45:16;16.40;70.30
78733;DHT22;68056;52.530;5.454;2023-07-22T06:47:42;16.40;70.40
78733;DHT22;68056;52.530;5.454;2023-07-22T06:50:07;16.40;70.40
78733;DHT22;68056;52.530;5.454;2023-07-22T06:52:33;16.40;70.40
78733;DHT22;68056;52.530;5.454;2023-07-22T06:54:59;16.50;70.20
78733;DHT22;68056;52.530;5.454;2023-07-22T06:57:25;16.50;70.10
78733;DHT22;68056;52.530;5.454;2023-07-22T06:59:54;16.60;70.00
78733;DHT22;68056;52.530;5.454;2023-07-22T07:02:20;16.70;69.90
78733;DHT22;68056;52.530;5.454;2023-07-22T07:04:46;16.80;69.90
78733;DHT22;68056;52.530;5.454;2023-07-22T07:07:13;16.90;69.80
78733;DHT22;68056;52.530;5.454;2023-07-22T07:09:38;17.00;69.70
78733;DHT22;68056;52.530;5.454;2023-07-22T07:12:04;17.20;69.50
78733;DHT22;68056;52.530;5.454;2023-07-22T07:14:30;17.30;69.40
78733;DHT22;68056;52.530;5.454;2023-07-22T07:16:56;17.40;69.30
78733;DHT22;68056;52.530;5.454;2023-07-22T07:19:21;17.50;69.30
78733;DHT22;68056;52.530;5.454;2023-07-22T07:21:47;17.60;69.10
78733;DHT22;68056;52.530;5.454;2023-07-22T07:24:13;17.60;69.00
78733;DHT22;68056;52.530;5.454;2023-07-22T07:26:38;17.70;69.00
78733;DHT22;68056;52.530;5.454;2023-07-22T07:29:04;17.80;68.90
78733;DHT22;68056;52.530;5.454;2023-07-22T07:31:30;17.80;68.80
78733;DHT22;68056;52.530;5.454;2023-07-22T07:33:55;17.90;68.80
78733;DHT22;68056;52.530;5.454;2023-07-22T07:36:21;18.00;68.70
78733;DHT22;68056;52.530;5.454;2023-07-22T07:38:47;18.00;68.40
78733;DHT22;68056;52.530;5.454;2023-07-22T07:41:12;18.00;68.50
78733;DHT22;68056;52.530;5.454;2023-07-22T07:43:42;18.00;68.50
78733;DHT22;68056;52.530;5.454;2023-07-22T07:46:18;18.00;68.50
78733;DHT22;68056;52.530;5.454;2023-07-22T07:48:45;17.90;68.60
78733;DHT22;68056;52.530;5.454;2023-07-22T07:51:13;17.80;68.70
78733;DHT22;68056;52.530;5.454;2023-07-22T07:53:39;17.80;69.00
78733;DHT22;68056;52.530;5.454;2023-07-22T07:56:06;17.70;69.10
78733;DHT22;68056;52.530;5.454;2023-07-22T07:58:32;17.60;69.20
78733;DHT22;68056;52.530;5.454;2023-07-22T08:00:57;17.60;69.30
78733;DHT22;68056;52.530;5.454;2023-07-22T08:03:23;17.60;69.50
78733;DHT22;68056;52.530;5.454;2023-07-22T08:05:49;17.60;69.50
78733;DHT22;68056;52.530;5.454;2023-07-22T08:08:14;17.70;69.60
78733;DHT22;68056;52.530;5.454;2023-07-22T08:10:40;17.70;69.70
78733;DHT22;68056;52.530;5.454;2023-07-22T08:13:06;17.80;69.80
78733;DHT22;68056;52.530;5.454;2023-07-22T08:15:31;17.80;69.90
78733;DHT22;68056;52.530;5.454;2023-07-22T08:17:57;18.00;70.00
78733;DHT22;68056;52.530;5.454;2023-07-22T08:20:23;18.20;70.00
78733;DHT22;68056;52.530;5.454;2023-07-22T08:22:48;18.50;69.80
78733;DHT22;68056;52.530;5.454;2023-07-22T08:25:14;18.80;69.40
78733;DHT22;68056;52.530;5.454;2023-07-22T08:27:40;19.10;69.10
78733;DHT22;68056;52.530;5.454;2023-07-22T08:30:05;19.10;69.00
78733;DHT22;68056;52.530;5.454;2023-07-22T08:32:31;19.10;69.00
78733;DHT22;68056;52.530;5.454;2023-07-22T08:34:57;19.10;69.00
78733;DHT22;68056;52.530;5.454;2023-07-22T08:37:22;19.20;69.10
78733;DHT22;68056;52.530;5.454;2023-07-22T08:39:48;19.20;69.10
78733;DHT22;68056;52.530;5.454;2023-07-22T08:42:15;19.10;69.10
78733;DHT22;68056;52.530;5.454;2023-07-22T08:44:43;19.10;69.10
78733;DHT22;68056;52.530;5.454;2023-07-22T08:47:15;19.10;69.30
78733;DHT22;68056;52.530;5.454;2023-07-22T08:49:46;19.10;69.40
78733;DHT22;68056;52.530;5.454;2023-07-22T08:52:15;19.20;69.30
78733;DHT22;68056;52.530;5.454;2023-07-22T08:54:41;19.30;69.30
78733;DHT22;68056;52.530;5.454;2023-07-22T08:57:09;19.40;69.30
78733;DHT22;68056;52.530;5.454;2023-07-22T08:59:36;19.50;69.00
78733;DHT22;68056;52.530;5.454;2023-07-22T09:02:02;19.50;69.00
78733;DHT22;68056;52.530;5.454;2023-07-22T09:04:29;19.50;69.00
78733;DHT22;68056;52.530;5.454;2023-07-22T09:06:55;19.40;69.00
78733;DHT22;68056;52.530;5.454;2023-07-22T09:09:21;19.30;69.20
78733;DHT22;68056;52.530;5.454;2023-07-22T09:11:48;19.20;69.10
78733;DHT22;68056;52.530;5.454;2023-07-22T09:14:13;19.20;69.30
78733;DHT22;68056;52.530;5.454;2023-07-22T09:16:39;19.20;69.20
78733;DHT22;68056;52.530;5.454;2023-07-22T09:19:06;19.20;69.00
78733;DHT22;68056;52.530;5.454;2023-07-22T09:21:31;19.30;68.80
78733;DHT22;68056;52.530;5.454;2023-07-22T09:24:01;19.40;68.50
78733;DHT22;68056;52.530;5.454;2023-07-22T09:26:26;19.40;68.30
78733;DHT22;68056;52.530;5.454;2023-07-22T09:28:57;19.50;68.20
78733;DHT22;68056;52.530;5.454;2023-07-22T09:31:24;19.50;68.10
78733;DHT22;68056;52.530;5.454;2023-07-22T09:33:50;19.40;68.00
78733;DHT22;68056;52.530;5.454;2023-07-22T09:36:17;19.30;68.00
78733;DHT22;68056;52.530;5.454;2023-07-22T09:38:42;19.10;68.00
78733;DHT22;68056;52.530;5.454;2023-07-22T09:41:08;19.00;68.20
78733;DHT22;68056;52.530;5.454;2023-07-22T09:43:38;18.90;68.30
78733;DHT22;68056;52.530;5.454;2023-07-22T09:46:10;18.80;68.50
78733;DHT22;68056;52.530;5.454;2023-07-22T09:48:45;18.70;68.60
78733;DHT22;68056;52.530;5.454;2023-07-22T09:51:13;18.50;68.60
78733;DHT22;68056;52.530;5.454;2023-07-22T09:53:44;18.10;69.20
78733;DHT22;68056;52.530;5.454;2023-07-22T09:56:10;17.80;69.70
78733;DHT22;68056;52.530;5.454;2023-07-22T09:58:36;17.50;70.10
78733;DHT22;68056;52.530;5.454;2023-07-22T10:01:03;17.40;70.50
78733;DHT22;68056;52.530;5.454;2023-07-22T10:03:31;17.30;70.70
78733;DHT22;68056;52.530;5.454;2023-07-22T10:06:00;17.20;70.90
78733;DHT22;68056;52.530;5.454;2023-07-22T10:08:26;17.20;71.10
78733;DHT22;68056;52.530;5.454;2023-07-22T10:10:56;17.20;71.20
78733;DHT22;68056;52.530;5.454;2023-07-22T10:13:24;17.20;71.20
78733;DHT22;68056;52.530;5.454;2023-07-22T10:15:50;17.40;71.30
78733;DHT22;68056;52.530;5.454;2023-07-22T10:18:16;17.50;71.30
78733;DHT22;68056;52.530;5.454;2023-07-22T10:20:43;17.60;71.10
78733;DHT22;68056;52.530;5.454;2023-07-22T10:23:10;17.60;71.00
78733;DHT22;68056;52.530;5.454;2023-07-22T10:25:39;17.60;70.90
78733;DHT22;68056;52.530;5.454;2023-07-22T10:28:06;17.60;70.90
78733;DHT22;68056;52.530;5.454;2023-07-22T10:30:32;17.70;70.80
78733;DHT22;68056;52.530;5.454;2023-07-22T10:32:58;17.70;70.80
78733;DHT22;68056;52.530;5.454;2023-07-22T10:36:15;17.70;70.70
78733;DHT22;68056;52.530;5.454;2023-07-22T10:38:16;17.70;70.70
78733;DHT22;68056;52.530;5.454;2023-07-22T10:40:52;17.70;70.80
78733;DHT22;68056;52.530;5.454;2023-07-22T10:43:38;17.70;70.70
78733;DHT22;68056;52.530;5.454;2023-07-22T10:46:12;17.80;70.70
78733;DHT22;68056;52.530;5.454;2023-07-22T10:48:41;17.80;70.40
78733;DHT22;68056;52.530;5.454;2023-07-22T10:51:10;17.80;70.10
78733;DHT22;68056;52.530;5.454;2023-07-22T10:54:03;17.80;70.00
78733;DHT22;68056;52.530;5.454;2023-07-22T10:56:35;17.80;69.90
78733;DHT22;68056;52.530;5.454;2023-07-22T10:59:01;17.90;69.70
78733;DHT22;68056;52.530;5.454;2023-07-22T11:11:58;18.10;69.30
78733;DHT22;68056;52.530;5.454;2023-07-22T11:14:26;18.10;68.90
78733;DHT22;68056;52.530;5.454;2023-07-22T11:16:52;18.10;68.60
78733;DHT22;68056;52.530;5.454;2023-07-22T11:19:25;18.10;68.30
78733;DHT22;68056;52.530;5.454;2023-07-22T11:21:54;18.10;68.30
78733;DHT22;68056;52.530;5.454;2023-07-22T11:24:24;18.00;68.30
78733;DHT22;68056;52.530;5.454;2023-07-22T11:26:51;18.00;67.70
78733;DHT22;68056;52.530;5.454;2023-07-22T11:29:17;17.80;67.90
78733;DHT22;68056;52.530;5.454;2023-07-22T11:31:51;17.70;68.60
78733;DHT22;68056;52.530;5.454;2023-07-22T11:34:19;17.50;69.40
78733;DHT22;68056;52.530;5.454;2023-07-22T11:36:45;17.40;69.90
78733;DHT22;68056;52.530;5.454;2023-07-22T11:39:15;17.30;70.30
78733;DHT22;68056;52.530;5.454;2023-07-22T11:41:42;17.20;70.60
78733;DHT22;68056;52.530;5.454;2023-07-22T11:44:09;17.20;70.80
78733;DHT22;68056;52.530;5.454;2023-07-22T11:46:35;17.20;71.00
78733;DHT22;68056;52.530;5.454;2023-07-22T11:49:13;17.20;71.20
78733;DHT22;68056;52.530;5.454;2023-07-22T11:51:46;17.20;71.00
78733;DHT22;68056;52.530;5.454;2023-07-22T11:54:12;17.20;71.00
78733;DHT22;68056;52.530;5.454;2023-07-22T11:56:51;17.30;71.10
78733;DHT22;68056;52.530;5.454;2023-07-22T11:59:16;17.40;71.00
78733;DHT22;68056;52.530;5.454;2023-07-22T12:01:44;17.50;70.90
78733;DHT22;68056;52.530;5.454;2023-07-22T12:04:23;17.60;70.90
78733;DHT22;68056;52.530;5.454;2023-07-22T12:06:49;17.70;70.70
78733;DHT22;68056;52.530;5.454;2023-07-22T12:09:27;17.80;70.60
78733;DHT22;68056;52.530;5.454;2023-07-22T12:12:11;18.00;70.50
78733;DHT22;68056;52.530;5.454;2023-07-22T12:14:36;18.20;70.50
78733;DHT22;68056;52.530;5.454;2023-07-22T12:17:02;18.40;70.20
78733;DHT22;68056;52.530;5.454;2023-07-22T12:19:31;18.60;70.10
78733;DHT22;68056;52.530;5.454;2023-07-22T12:21:56;18.80;69.90
78733;DHT22;68056;52.530;5.454;2023-07-22T12:24:22;19.10;69.80
78733;DHT22;68056;52.530;5.454;2023-07-22T12:26:48;19.50;68.90
78733;DHT22;68056;52.530;5.454;2023-07-22T12:29:13;19.70;67.70
78733;DHT22;68056;52.530;5.454;2023-07-22T12:31:39;19.50;67.20
78733;DHT22;68056;52.530;5.454;2023-07-22T12:34:04;19.50;67.30
78733;DHT22;68056;52.530;5.454;2023-07-22T12:36:30;19.30;67.50
78733;DHT22;68056;52.530;5.454;2023-07-22T12:38:56;19.30;67.50
78733;DHT22;68056;52.530;5.454;2023-07-22T12:41:21;19.30;67.60
78733;DHT22;68056;52.530;5.454;2023-07-22T12:43:47;19.30;67.70
78733;DHT22;68056;52.530;5.454;2023-07-22T12:46:14;19.40;67.70
78733;DHT22;68056;52.530;5.454;2023-07-22T12:48:40;19.40;67.50
78733;DHT22;68056;52.530;5.454;2023-07-22T12:51:08;19.50;67.40
78733;DHT22;68056;52.530;5.454;2023-07-22T12:53:34;19.50;67.40
78733;DHT22;68056;52.530;5.454;2023-07-22T13:09:08;20.10;64.00
78733;DHT22;68056;52.530;5.454;2023-07-22T13:11:40;20.10;63.10
78733;DHT22;68056;52.530;5.454;2023-07-22T13:14:08;20.00;62.70
78733;DHT22;68056;52.530;5.454;2023-07-22T13:16:43;20.00;63.00
78733;DHT22;68056;52.530;5.454;2023-07-22T13:19:09;20.00;63.20
78733;DHT22;68056;52.530;5.454;2023-07-22T13:21:52;20.10;63.20
78733;DHT22;68056;52.530;5.454;2023-07-22T13:24:18;20.00;63.10
78733;DHT22;68056;52.530;5.454;2023-07-22T13:26:56;19.90;62.20
78733;DHT22;68056;52.530;5.454;2023-07-22T13:29:22;19.80;62.10
78733;DHT22;68056;52.530;5.454;2023-07-22T13:31:50;19.70;61.60
78733;DHT22;68056;52.530;5.454;2023-07-22T13:34:32;19.50;62.00
78733;DHT22;68056;52.530;5.454;2023-07-22T13:36:57;19.40;62.00
78733;DHT22;68056;52.530;5.454;2023-07-22T13:39:35;19.30;62.10
78733;DHT22;68056;52.530;5.454;2023-07-22T13:42:01;19.10;62.10
78733;DHT22;68056;52.530;5.454;2023-07-22T13:44:43;19.10;62.30
78733;DHT22;68056;52.530;5.454;2023-07-22T13:47:11;19.00;62.50
78733;DHT22;68056;52.530;5.454;2023-07-22T13:49:37;19.00;62.50
78733;DHT22;68056;52.530;5.454;2023-07-22T13:52:02;18.90;62.40
78733;DHT22;68056;52.530;5.454;2023-07-22T13:54:28;18.90;62.60
78733;DHT22;68056;52.530;5.454;2023-07-22T13:56:53;18.80;62.70
78733;DHT22;68056;52.530;5.454;2023-07-22T13:59:19;18.80;62.70
78733;DHT22;68056;52.530;5.454;2023-07-22T14:01:47;18.70;62.70
78733;DHT22;68056;52.530;5.454;2023-07-22T14:04:16;18.70;62.70
78733;DHT22;68056;52.530;5.454;2023-07-22T14:06:41;18.60;62.90
78733;DHT22;68056;52.530;5.454;2023-07-22T14:09:07;18.60;62.90
78733;DHT22;68056;52.530;5.454;2023-07-22T14:11:33;18.50;63.00
78733;DHT22;68056;52.530;5.454;2023-07-22T14:13:58;18.50;62.90
78733;DHT22;68056;52.530;5.454;2023-07-22T14:16:24;18.50;63.00
78733;DHT22;68056;52.530;5.454;2023-07-22T14:18:49;18.50;63.00
78733;DHT22;68056;52.530;5.454;2023-07-22T14:21:17;18.60;62.80
78733;DHT22;68056;52.530;5.454;2023-07-22T14:23:42;18.60;62.70
78733;DHT22;68056;52.530;5.454;2023-07-22T14:26:09;18.70;62.70
78733;DHT22;68056;52.530;5.454;2023-07-22T14:28:40;18.80;62.60
78733;DHT22;68056;52.530;5.454;2023-07-22T14:31:07;18.90;62.50
78733;DHT22;68056;52.530;5.454;2023-07-22T14:33:44;18.90;62.40
78733;DHT22;68056;52.530;5.454;2023-07-22T14:36:11;19.00;62.40
78733;DHT22;68056;52.530;5.454;2023-07-22T14:38:43;19.10;62.50
78733;DHT22;68056;52.530;5.454;2023-07-22T14:41:08;19.10;62.20
78733;DHT22;68056;52.530;5.454;2023-07-22T14:43:48;19.20;62.20
78733;DHT22;68056;52.530;5.454;2023-07-22T14:46:16;19.20;62.10
78733;DHT22;68056;52.530;5.454;2023-07-22T14:48:42;19.30;61.90
78733;DHT22;68056;52.530;5.454;2023-07-22T14:51:11;19.30;61.70
78733;DHT22;68056;52.530;5.454;2023-07-22T14:53:36;19.30;61.60
78733;DHT22;68056;52.530;5.454;2023-07-22T14:56:05;19.30;61.50
78733;DHT22;68056;52.530;5.454;2023-07-22T14:58:35;19.30;61.50
78733;DHT22;68056;52.530;5.454;2023-07-22T15:01:08;19.30;61.40
78733;DHT22;68056;52.530;5.454;2023-07-22T15:03:34;19.40;61.40
78733;DHT22;68056;52.530;5.454;2023-07-22T15:06:03;19.50;61.40
78733;DHT22;68056;52.530;5.454;2023-07-22T15:08:29;19.50;61.30
78733;DHT22;68056;52.530;5.454;2023-07-22T15:10:54;19.50;61.10
78733;DHT22;68056;52.530;5.454;2023-07-22T15:13:35;19.50;61.10
78733;DHT22;68056;52.530;5.454;2023-07-22T15:16:03;19.50;61.20
78733;DHT22;68056;52.530;5.454;2023-07-22T15:18:28;19.50;61.20
78733;DHT22;68056;52.530;5.454;2023-07-22T15:20:54;19.50;61.00
78733;DHT22;68056;52.530;5.454;2023-07-22T15:23:20;19.50;61.00
78733;DHT22;68056;52.530;5.454;2023-07-22T15:25:46;19.40;60.90
78733;DHT22;68056;52.530;5.454;2023-07-22T15:28:11;19.40;61.10
78733;DHT22;68056;52.530;5.454;2023-07-22T15:30:37;19.30;61.10
78733;DHT22;68056;52.530;5.454;2023-07-22T15:33:05;19.30;61.20
78733;DHT22;68056;52.530;5.454;2023-07-22T15:35:46;19.30;61.10
78733;DHT22;68056;52.530;5.454;2023-07-22T15:38:17;19.30;60.90
78733;DHT22;68056;52.530;5.454;2023-07-22T15:40:43;19.30;60.80
78733;DHT22;68056;52.530;5.454;2023-07-22T15:43:21;19.20;61.00
78733;DHT22;68056;52.530;5.454;2023-07-22T15:45:47;19.20;61.20
78733;DHT22;68056;52.530;5.454;2023-07-22T15:48:13;19.20;61.10
78733;DHT22;68056;52.530;5.454;2023-07-22T15:50:41;19.20;61.10
78733;DHT22;68056;52.530;5.454;2023-07-22T15:53:07;19.20;61.20